Norfolk, Virginia
Traffic Map
Current Weather Conditions
Norfolk, Virginia
Broken Clouds
Broken Clouds

Feels Like: 5°
Wind Chill: Ceiling: 5000
Heat Index: Visibility: 10mi
Dew Point: -7° Wind: 0mph
Humidity: 43% Direction: ° ()
Pressure: 30.3in Gusts: 0mph
Raw Report DataKORF 282151Z AUTO 00000KT 10SM BKN050 05/M07 A3030 RMK AO2 SLP259 T00501067 TSNO
Traffic Incident Summary
Active as of:
Severity:
Category:
InformationThere was an issue retrieving the traffic information for this location. Please try a different location or try again shortly.
Advertisements
Track Severe Weather on mobile